Wetterdaten: aktuell Sonntag, 06.09.2026 05:00
Datum Zeit Temp. A. Feuchte A. Luftdruck Regen Wind Richtung Richtung Sonnenschein Solar Taupunkt Windchill Windböen
06.09.2026 05:00 9,9 °C 90 % 1025,4 hPa 0,0 l/m² 0,0 km/h NW 315 ° 0 min 0 W/m² 8,3 °C 9,9 °C 3,2 km/h
06.09.2026 04:55 9,9 °C 90 % 1025,4 hPa 0,0 l/m² 1,6 km/h N-NW 337 ° 0 min 0 W/m² 8,3 °C 9,9 °C 3,2 km/h
06.09.2026 04:50 9,9 °C 90 % 1025,4 hPa 0,0 l/m² 0,0 km/h N-NW 337 ° 0 min 0 W/m² 8,3 °C 9,9 °C 1,6 km/h
06.09.2026 04:45 9,9 °C 90 % 1025,4 hPa 0,0 l/m² 0,0 km/h NW 315 ° 0 min 0 W/m² 8,3 °C 9,9 °C 1,6 km/h
06.09.2026 04:40 9,9 °C 90 % 1025,4 hPa 0,0 l/m² 0,0 km/h NW 315 ° 0 min 0 W/m² 8,3 °C 9,9 °C 1,6 km/h
06.09.2026 04:35 9,9 °C 90 % 1025,5 hPa 0,0 l/m² 0,0 km/h NW 315 ° 0 min 0 W/m² 8,3 °C 9,9 °C 3,2 km/h
06.09.2026 04:30 9,9 °C 89 % 1025,4 hPa 0,0 l/m² 0,0 km/h NW 315 ° 0 min 0 W/m² 8,2 °C 9,9 °C 3,2 km/h
06.09.2026 04:25 9,9 °C 89 % 1025,4 hPa 0,0 l/m² 0,0 km/h NW 315 ° 0 min 0 W/m² 8,2 °C 9,9 °C 3,2 km/h
06.09.2026 04:20 10,0 °C 89 % 1025,4 hPa 0,0 l/m² 0,0 km/h N 0 ° 0 min 0 W/m² 8,3 °C 10,0 °C 0,0 km/h
06.09.2026 04:15 10,1 °C 89 % 1025,4 hPa 0,0 l/m² 0,0 km/h N 0 ° 0 min 0 W/m² 8,4 °C 10,1 °C 0,0 km/h
06.09.2026 04:10 10,1 °C 89 % 1025,4 hPa 0,0 l/m² 0,0 km/h NW 315 ° 0 min 0 W/m² 8,4 °C 10,1 °C 3,2 km/h
06.09.2026 04:05 10,2 °C 88 % 1025,3 hPa 0,0 l/m² 0,0 km/h N 0 ° 0 min 0 W/m² 8,3 °C 10,2 °C 0,0 km/h
06.09.2026 04:00 10,2 °C 88 % 1025,4 hPa 0,0 l/m² 0,0 km/h N 0 ° 0 min 0 W/m² 8,3 °C 10,2 °C 0,0 km/h
06.09.2026 03:55 10,3 °C 88 % 1025,4 hPa 0,0 l/m² 0,0 km/h NW 315 ° 0 min 0 W/m² 8,4 °C 10,3 °C 3,2 km/h
06.09.2026 03:50 10,4 °C 88 % 1025,3 hPa 0,0 l/m² 0,0 km/h N 0 ° 0 min 0 W/m² 8,5 °C 10,4 °C 0,0 km/h
06.09.2026 03:45 10,4 °C 88 % 1025,2 hPa 0,0 l/m² 0,0 km/h N 0 ° 0 min 0 W/m² 8,5 °C 10,4 °C 0,0 km/h
06.09.2026 03:40 10,5 °C 88 % 1025,2 hPa 0,0 l/m² 0,0 km/h NW 315 ° 0 min 0 W/m² 8,6 °C 10,5 °C 3,2 km/h
06.09.2026 03:35 10,6 °C 87 % 1025,1 hPa 0,0 l/m² 0,0 km/h NW 315 ° 0 min 0 W/m² 8,5 °C 10,6 °C 4,8 km/h
06.09.2026 03:30 10,7 °C 87 % 1025,1 hPa 0,0 l/m² 0,0 km/h W-NW 292 ° 0 min 0 W/m² 8,6 °C 10,7 °C 1,6 km/h
06.09.2026 03:25 10,8 °C 87 % 1025,1 hPa 0,0 l/m² 0,0 km/h W-NW 292 ° 0 min 0 W/m² 8,7 °C 10,8 °C 1,6 km/h
06.09.2026 03:20 10,8 °C 87 % 1025,2 hPa 0,0 l/m² 0,0 km/h W-NW 292 ° 0 min 0 W/m² 8,7 °C 10,8 °C 4,8 km/h
06.09.2026 03:15 10,9 °C 86 % 1025,2 hPa 0,0 l/m² 0,0 km/h N 0 ° 0 min 0 W/m² 8,7 °C 10,9 °C 0,0 km/h
06.09.2026 03:10 11,0 °C 86 % 1025,0 hPa 0,0 l/m² 0,0 km/h W-NW 292 ° 0 min 0 W/m² 8,7 °C 11,0 °C 1,6 km/h
06.09.2026 03:05 11,1 °C 86 % 1025,1 hPa 0,0 l/m² 0,0 km/h N 0 ° 0 min 0 W/m² 8,8 °C 11,1 °C 0,0 km/h
06.09.2026 03:00 11,2 °C 86 % 1025,0 hPa 0,0 l/m² 0,0 km/h N 0 ° 0 min 0 W/m² 8,9 °C 11,2 °C 0,0 km/h
06.09.2026 02:55 11,2 °C 85 % 1024,9 hPa 0,0 l/m² 0,0 km/h W-NW 292 ° 0 min 0 W/m² 8,8 °C 11,2 °C 1,6 km/h
06.09.2026 02:50 11,3 °C 86 % 1025,0 hPa 0,0 l/m² 0,0 km/h N 0 ° 0 min 0 W/m² 9,0 °C 11,3 °C 0,0 km/h
06.09.2026 02:45 11,4 °C 85 % 1025,0 hPa 0,0 l/m² 0,0 km/h N 0 ° 0 min 0 W/m² 9,0 °C 11,4 °C 0,0 km/h
06.09.2026 02:40 11,4 °C 85 % 1025,0 hPa 0,0 l/m² 0,0 km/h N 0 ° 0 min 0 W/m² 9,0 °C 11,4 °C 0,0 km/h
06.09.2026 02:35 11,4 °C 84 % 1025,0 hPa 0,0 l/m² 0,0 km/h N 0 ° 0 min 0 W/m² 8,8 °C 11,4 °C 0,0 km/h
06.09.2026 02:30 11,5 °C 84 % 1025,1 hPa 0,0 l/m² 0,0 km/h N 0 ° 0 min 0 W/m² 8,9 °C 11,5 °C 0,0 km/h
06.09.2026 02:25 11,6 °C 84 % 1025,0 hPa 0,0 l/m² 0,0 km/h N 0 ° 0 min 0 W/m² 9,0 °C 11,6 °C 0,0 km/h
06.09.2026 02:20 11,6 °C 84 % 1024,9 hPa 0,0 l/m² 0,0 km/h N 0 ° 0 min 0 W/m² 9,0 °C 11,6 °C 0,0 km/h
06.09.2026 02:15 11,7 °C 83 % 1024,9 hPa 0,0 l/m² 0,0 km/h N 0 ° 0 min 0 W/m² 8,9 °C 11,7 °C 0,0 km/h
06.09.2026 02:10 11,9 °C 83 % 1024,9 hPa 0,0 l/m² 0,0 km/h N 0 ° 0 min 0 W/m² 9,1 °C 11,9 °C 0,0 km/h
06.09.2026 02:05 12,1 °C 82 % 1024,7 hPa 0,0 l/m² 0,0 km/h N 0 ° 0 min 0 W/m² 9,1 °C 12,1 °C 0,0 km/h
06.09.2026 02:00 12,2 °C 81 % 1024,7 hPa 0,0 l/m² 0,0 km/h W-NW 292 ° 0 min 0 W/m² 9,0 °C 12,2 °C 1,6 km/h
06.09.2026 01:55 12,4 °C 81 % 1024,7 hPa 0,0 l/m² 0,0 km/h N 0 ° 0 min 0 W/m² 9,2 °C 12,4 °C 0,0 km/h
06.09.2026 01:50 12,6 °C 81 % 1024,6 hPa 0,0 l/m² 0,0 km/h N 0 ° 0 min 0 W/m² 9,4 °C 12,6 °C 0,0 km/h
06.09.2026 01:45 12,7 °C 81 % 1024,6 hPa 0,0 l/m² 0,0 km/h W-NW 292 ° 0 min 0 W/m² 9,5 °C 12,7 °C 3,2 km/h
06.09.2026 01:40 12,8 °C 80 % 1024,6 hPa 0,0 l/m² 0,0 km/h N 0 ° 0 min 0 W/m² 9,4 °C 12,8 °C 0,0 km/h
06.09.2026 01:35 12,9 °C 80 % 1024,6 hPa 0,0 l/m² 0,0 km/h N 0 ° 0 min 0 W/m² 9,5 °C 12,9 °C 0,0 km/h
06.09.2026 01:30 13,0 °C 79 % 1024,6 hPa 0,0 l/m² 0,0 km/h W-NW 292 ° 0 min 0 W/m² 9,4 °C 13,0 °C 1,6 km/h
06.09.2026 01:25 13,1 °C 79 % 1024,5 hPa 0,0 l/m² 0,0 km/h N 0 ° 0 min 0 W/m² 9,5 °C 13,1 °C 0,0 km/h
06.09.2026 01:20 13,3 °C 78 % 1024,6 hPa 0,0 l/m² 0,0 km/h N 0 ° 0 min 0 W/m² 9,5 °C 13,3 °C 0,0 km/h
06.09.2026 01:15 13,6 °C 77 % 1024,5 hPa 0,0 l/m² 1,6 km/h W-NW 292 ° 0 min 0 W/m² 9,6 °C 13,6 °C 3,2 km/h
06.09.2026 01:10 13,8 °C 77 % 1024,3 hPa 0,0 l/m² 1,6 km/h W-NW 292 ° 0 min 0 W/m² 9,8 °C 13,8 °C 4,8 km/h
06.09.2026 01:05 14,0 °C 76 % 1024,3 hPa 0,0 l/m² 1,6 km/h W-NW 292 ° 0 min 0 W/m² 9,8 °C 14,0 °C 4,8 km/h
06.09.2026 01:00 14,2 °C 75 % 1024,3 hPa 0,0 l/m² 3,2 km/h W-NW 292 ° 0 min 0 W/m² 9,8 °C 14,2 °C 6,4 km/h
06.09.2026 00:55 14,4 °C 75 % 1024,2 hPa 0,0 l/m² 4,8 km/h W-NW 292 ° 0 min 0 W/m² 10,0 °C 14,4 °C 6,4 km/h
06.09.2026 00:50 14,5 °C 75 % 1024,3 hPa 0,0 l/m² 3,2 km/h W-NW 292 ° 0 min 0 W/m² 10,1 °C 14,5 °C 4,8 km/h
06.09.2026 00:45 14,6 °C 74 % 1024,2 hPa 0,0 l/m² 3,2 km/h W-NW 292 ° 0 min 0 W/m² 10,0 °C 14,6 °C 4,8 km/h
06.09.2026 00:40 14,6 °C 73 % 1024,2 hPa 0,0 l/m² 3,2 km/h W-NW 292 ° 0 min 0 W/m² 9,8 °C 14,6 °C 4,8 km/h
06.09.2026 00:35 14,7 °C 73 % 1024,3 hPa 0,0 l/m² 4,8 km/h W-NW 292 ° 0 min 0 W/m² 9,9 °C 14,7 °C 6,4 km/h
06.09.2026 00:30 14,7 °C 73 % 1024,2 hPa 0,0 l/m² 4,8 km/h W-NW 292 ° 0 min 0 W/m² 9,9 °C 14,7 °C 8,0 km/h
06.09.2026 00:25 14,8 °C 73 % 1024,1 hPa 0,0 l/m² 4,8 km/h W-NW 292 ° 0 min 0 W/m² 10,0 °C 14,8 °C 6,4 km/h
06.09.2026 00:20 14,9 °C 72 % 1024,0 hPa 0,0 l/m² 3,2 km/h W-NW 292 ° 0 min 0 W/m² 9,9 °C 14,9 °C 4,8 km/h
06.09.2026 00:15 15,1 °C 72 % 1024,0 hPa 0,0 l/m² 4,8 km/h W-NW 292 ° 0 min 0 W/m² 10,1 °C 15,1 °C 6,4 km/h
06.09.2026 00:10 15,2 °C 72 % 1023,9 hPa 0,0 l/m² 3,2 km/h W-NW 292 ° 0 min 0 W/m² 10,2 °C 15,2 °C 6,4 km/h
06.09.2026 00:05 15,4 °C 71 % 1023,9 hPa 0,0 l/m² 1,6 km/h W-NW 292 ° 0 min 0 W/m² 10,2 °C 15,4 °C 3,2 km/h
06.09.2026 00:00 15,4 °C 71 % 1023,9 hPa 0,0 l/m² 1,6 km/h W-NW 292 ° 0 min 0 W/m² 10,2 °C 15,4 °C 6,4 km/h
05.09.2026 23:55 15,5 °C 71 % 1023,8 hPa 0,0 l/m² 3,2 km/h W-NW 292 ° 0 min 0 W/m² 10,3 °C 15,5 °C 4,8 km/h
05.09.2026 23:50 15,6 °C 71 % 1023,7 hPa 0,0 l/m² 4,8 km/h W-NW 292 ° 0 min 0 W/m² 10,4 °C 15,6 °C 8,0 km/h
05.09.2026 23:45 15,5 °C 70 % 1023,7 hPa 0,0 l/m² 6,4 km/h W-NW 292 ° 0 min 0 W/m² 10,1 °C 15,5 °C 8,0 km/h
05.09.2026 23:40 15,5 °C 71 % 1023,5 hPa 0,0 l/m² 6,4 km/h W-NW 292 ° 0 min 0 W/m² 10,3 °C 15,5 °C 11,3 km/h
05.09.2026 23:35 15,5 °C 71 % 1023,6 hPa 0,0 l/m² 6,4 km/h W-NW 292 ° 0 min 0 W/m² 10,3 °C 15,5 °C 8,0 km/h
05.09.2026 23:30 15,4 °C 71 % 1023,5 hPa 0,0 l/m² 6,4 km/h W-NW 292 ° 0 min 0 W/m² 10,2 °C 15,4 °C 11,3 km/h
05.09.2026 23:25 15,3 °C 72 % 1023,6 hPa 0,0 l/m² 6,4 km/h W-NW 292 ° 0 min 0 W/m² 10,3 °C 15,3 °C 11,3 km/h
05.09.2026 23:20 15,3 °C 72 % 1023,5 hPa 0,0 l/m² 6,4 km/h W-NW 292 ° 0 min 0 W/m² 10,3 °C 15,3 °C 8,0 km/h
05.09.2026 23:15 15,3 °C 72 % 1023,6 hPa 0,0 l/m² 4,8 km/h N 360 ° 0 min 0 W/m² 10,3 °C 15,3 °C 11,3 km/h
05.09.2026 23:10 15,3 °C 72 % 1023,5 hPa 0,0 l/m² 1,6 km/h N 360 ° 0 min 0 W/m² 10,3 °C 15,3 °C 4,8 km/h
05.09.2026 23:05 15,4 °C 72 % 1023,4 hPa 0,0 l/m² 1,6 km/h N 360 ° 0 min 0 W/m² 10,4 °C 15,4 °C 6,4 km/h
05.09.2026 23:00 15,5 °C 72 % 1023,3 hPa 0,0 l/m² 4,8 km/h N 360 ° 0 min 0 W/m² 10,5 °C 15,5 °C 6,4 km/h
05.09.2026 22:55 15,7 °C 71 % 1023,3 hPa 0,0 l/m² 3,2 km/h N-NW 337 ° 0 min 0 W/m² 10,5 °C 15,7 °C 6,4 km/h
05.09.2026 22:50 15,8 °C 71 % 1023,3 hPa 0,0 l/m² 3,2 km/h NW 315 ° 0 min 0 W/m² 10,6 °C 15,8 °C 4,8 km/h
05.09.2026 22:45 15,9 °C 70 % 1023,2 hPa 0,0 l/m² 3,2 km/h NW 315 ° 0 min 0 W/m² 10,4 °C 15,9 °C 6,4 km/h
05.09.2026 22:40 16,1 °C 70 % 1023,2 hPa 0,0 l/m² 3,2 km/h N-NW 337 ° 0 min 0 W/m² 10,6 °C 16,1 °C 6,4 km/h
05.09.2026 22:35 16,2 °C 69 % 1023,0 hPa 0,0 l/m² 1,6 km/h N-NW 337 ° 0 min 0 W/m² 10,5 °C 16,2 °C 3,2 km/h
05.09.2026 22:30 16,3 °C 69 % 1023,0 hPa 0,0 l/m² 1,6 km/h N-NW 337 ° 0 min 0 W/m² 10,6 °C 16,3 °C 4,8 km/h
05.09.2026 22:25 16,4 °C 69 % 1022,9 hPa 0,0 l/m² 3,2 km/h N-NW 337 ° 0 min 0 W/m² 10,7 °C 16,4 °C 4,8 km/h
05.09.2026 22:20 16,6 °C 68 % 1022,8 hPa 0,0 l/m² 3,2 km/h N-NW 337 ° 0 min 0 W/m² 10,7 °C 16,6 °C 6,4 km/h
05.09.2026 22:15 16,7 °C 68 % 1022,8 hPa 0,0 l/m² 1,6 km/h N-NW 337 ° 0 min 0 W/m² 10,8 °C 16,7 °C 4,8 km/h
05.09.2026 22:10 16,8 °C 67 % 1022,7 hPa 0,0 l/m² 1,6 km/h NW 315 ° 0 min 0 W/m² 10,6 °C 16,8 °C 3,2 km/h
05.09.2026 22:05 17,0 °C 66 % 1022,6 hPa 0,0 l/m² 3,2 km/h NW 315 ° 0 min 0 W/m² 10,6 °C 17,0 °C 4,8 km/h
05.09.2026 22:00 17,1 °C 66 % 1022,7 hPa 0,0 l/m² 3,2 km/h NW 315 ° 0 min 0 W/m² 10,7 °C 17,1 °C 6,4 km/h
05.09.2026 21:55 17,3 °C 66 % 1022,6 hPa 0,0 l/m² 1,6 km/h NW 315 ° 0 min 0 W/m² 10,9 °C 17,3 °C 6,4 km/h
05.09.2026 21:50 17,4 °C 65 % 1022,6 hPa 0,0 l/m² 1,6 km/h NW 315 ° 0 min 0 W/m² 10,8 °C 17,4 °C 4,8 km/h
05.09.2026 21:45 17,6 °C 64 % 1022,6 hPa 0,0 l/m² 0,0 km/h N 0 ° 0 min 0 W/m² 10,7 °C 17,6 °C 0,0 km/h
05.09.2026 21:40 17,7 °C 64 % 1022,5 hPa 0,0 l/m² 0,0 km/h N 0 ° 0 min 0 W/m² 10,8 °C 17,7 °C 0,0 km/h
05.09.2026 21:35 17,8 °C 63 % 1022,4 hPa 0,0 l/m² 0,0 km/h NW 315 ° 0 min 0 W/m² 10,7 °C 17,8 °C 3,2 km/h
05.09.2026 21:30 17,8 °C 63 % 1022,3 hPa 0,0 l/m² 3,2 km/h NW 315 ° 0 min 0 W/m² 10,7 °C 17,8 °C 6,4 km/h
05.09.2026 21:25 18,1 °C 63 % 1022,2 hPa 0,0 l/m² 3,2 km/h NW 315 ° 0 min 0 W/m² 10,9 °C 18,1 °C 6,4 km/h
05.09.2026 21:20 18,2 °C 62 % 1022,1 hPa 0,0 l/m² 1,6 km/h NW 315 ° 0 min 0 W/m² 10,8 °C 18,2 °C 4,8 km/h
05.09.2026 21:15 18,3 °C 61 % 1022,1 hPa 0,0 l/m² 1,6 km/h NW 315 ° 0 min 0 W/m² 10,6 °C 18,3 °C 3,2 km/h
05.09.2026 21:10 18,4 °C 60 % 1022,1 hPa 0,0 l/m² 1,6 km/h NW 315 ° 0 min 0 W/m² 10,5 °C 18,4 °C 4,8 km/h
05.09.2026 21:05 18,5 °C 60 % 1022,0 hPa 0,0 l/m² 1,6 km/h NW 315 ° 0 min 0 W/m² 10,6 °C 18,5 °C 4,8 km/h
05.09.2026 21:00 18,6 °C 60 % 1022,0 hPa 0,0 l/m² 0,0 km/h NW 315 ° 0 min 0 W/m² 10,7 °C 18,6 °C 3,2 km/h
05.09.2026 20:55 18,7 °C 60 % 1021,8 hPa 0,0 l/m² 1,6 km/h NW 315 ° 0 min 0 W/m² 10,8 °C 18,7 °C 3,2 km/h
05.09.2026 20:50 18,7 °C 59 % 1021,8 hPa 0,0 l/m² 1,6 km/h W 270 ° 0 min 0 W/m² 10,5 °C 18,7 °C 6,4 km/h
05.09.2026 20:45 18,8 °C 59 % 1021,8 hPa 0,0 l/m² 0,0 km/h W 270 ° 0 min 0 W/m² 10,6 °C 18,8 °C 6,4 km/h
05.09.2026 20:40 18,9 °C 59 % 1021,7 hPa 0,0 l/m² 1,6 km/h NW 315 ° 0 min 0 W/m² 10,7 °C 18,9 °C 6,4 km/h
05.09.2026 20:35 19,0 °C 59 % 1021,6 hPa 0,0 l/m² 1,6 km/h NW 315 ° 0 min 0 W/m² 10,8 °C 19,0 °C 8,0 km/h
05.09.2026 20:30 19,1 °C 59 % 1021,5 hPa 0,0 l/m² 3,2 km/h NW 315 ° 0 min 0 W/m² 10,9 °C 19,1 °C 6,4 km/h
05.09.2026 20:25 19,2 °C 58 % 1021,5 hPa 0,0 l/m² 1,6 km/h NW 315 ° 0 min 0 W/m² 10,7 °C 19,2 °C 6,4 km/h
05.09.2026 20:20 19,2 °C 58 % 1021,5 hPa 0,0 l/m² 4,8 km/h NW 315 ° 0 min 0 W/m² 10,7 °C 19,2 °C 11,3 km/h
05.09.2026 20:15 19,2 °C 58 % 1021,5 hPa 0,0 l/m² 3,2 km/h NW 315 ° 0 min 0 W/m² 10,7 °C 19,2 °C 9,7 km/h
05.09.2026 20:10 19,3 °C 57 % 1021,4 hPa 0,0 l/m² 3,2 km/h W-NW 292 ° 0 min 0 W/m² 10,6 °C 19,3 °C 11,3 km/h
05.09.2026 20:05 19,4 °C 57 % 1021,3 hPa 0,0 l/m² 3,2 km/h W-NW 292 ° 0 min 0 W/m² 10,7 °C 19,4 °C 8,0 km/h
05.09.2026 20:00 19,6 °C 57 % 1021,2 hPa 0,0 l/m² 3,2 km/h NW 315 ° 0 min 0 W/m² 10,8 °C 19,6 °C 12,9 km/h
05.09.2026 19:55 19,7 °C 57 % 1021,2 hPa 0,0 l/m² 4,8 km/h W-NW 292 ° 0 min 0 W/m² 10,9 °C 19,7 °C 16,1 km/h
05.09.2026 19:50 19,8 °C 56 % 1021,1 hPa 0,0 l/m² 4,8 km/h W-NW 292 ° 0 min 5 W/m² 10,8 °C 19,8 °C 14,5 km/h
05.09.2026 19:45 19,9 °C 56 % 1021,0 hPa 0,0 l/m² 4,8 km/h W 270 ° 0 min 7 W/m² 10,9 °C 19,9 °C 9,7 km/h
05.09.2026 19:40 20,1 °C 56 % 1020,9 hPa 0,0 l/m² 6,4 km/h W-NW 292 ° 0 min 9 W/m² 11,0 °C 20,1 °C 14,5 km/h
05.09.2026 19:35 20,3 °C 57 % 1021,0 hPa 0,0 l/m² 4,8 km/h W 270 ° 0 min 11 W/m² 11,5 °C 20,3 °C 12,9 km/h
05.09.2026 19:30 20,5 °C 56 % 1020,8 hPa 0,0 l/m² 8,0 km/h W-NW 292 ° 0 min 12 W/m² 11,4 °C 19,9 °C 14,5 km/h
05.09.2026 19:25 20,6 °C 56 % 1020,8 hPa 0,0 l/m² 6,4 km/h W-NW 292 ° 0 min 12 W/m² 11,5 °C 20,6 °C 14,5 km/h
05.09.2026 19:20 20,7 °C 57 % 1020,8 hPa 0,0 l/m² 4,8 km/h W-NW 292 ° 0 min 14 W/m² 11,9 °C 20,7 °C 12,9 km/h
05.09.2026 19:15 21,0 °C 55 % 1020,7 hPa 0,0 l/m² 4,8 km/h W 270 ° 0 min 16 W/m² 11,6 °C 21,0 °C 14,5 km/h
05.09.2026 19:10 21,2 °C 54 % 1020,7 hPa 0,0 l/m² 9,7 km/h W 270 ° 0 min 18 W/m² 11,5 °C 20,1 °C 17,7 km/h
05.09.2026 19:05 21,3 °C 54 % 1020,6 hPa 0,0 l/m² 9,7 km/h W 270 ° 0 min 19 W/m² 11,6 °C 20,2 °C 19,3 km/h
05.09.2026 19:00 21,4 °C 54 % 1020,6 hPa 0,0 l/m² 12,9 km/h W 270 ° 0 min 21 W/m² 11,7 °C 19,4 °C 27,4 km/h
05.09.2026 18:55 21,4 °C 54 % 1020,5 hPa 0,0 l/m² 8,0 km/h W 270 ° 0 min 21 W/m² 11,7 °C 20,8 °C 16,1 km/h
05.09.2026 18:50 21,7 °C 52 % 1020,3 hPa 0,0 l/m² 9,7 km/h W 270 ° 0 min 23 W/m² 11,4 °C 20,6 °C 25,7 km/h
05.09.2026 18:45 22,0 °C 52 % 1020,3 hPa 0,0 l/m² 9,7 km/h W 270 ° 5 min 107 W/m² 11,7 °C 20,9 °C 19,3 km/h
05.09.2026 18:40 22,1 °C 52 % 1020,3 hPa 0,0 l/m² 11,3 km/h W 270 ° 5 min 118 W/m² 11,8 °C 20,6 °C 22,5 km/h
05.09.2026 18:35 22,2 °C 52 % 1020,2 hPa 0,0 l/m² 9,7 km/h W-NW 292 ° 5 min 120 W/m² 11,9 °C 21,2 °C 22,5 km/h
05.09.2026 18:30 22,2 °C 52 % 1020,2 hPa 0,0 l/m² 9,7 km/h W-SW 247 ° 0 min 116 W/m² 11,9 °C 21,2 °C 29,0 km/h
05.09.2026 18:25 22,3 °C 52 % 1020,0 hPa 0,0 l/m² 12,9 km/h W 270 ° 0 min 95 W/m² 12,0 °C 20,5 °C 25,7 km/h
05.09.2026 18:20 22,4 °C 51 % 1020,0 hPa 0,0 l/m² 9,7 km/h W-NW 292 ° 0 min 90 W/m² 11,8 °C 21,4 °C 22,5 km/h
05.09.2026 18:15 22,5 °C 50 % 1020,0 hPa 0,0 l/m² 11,3 km/h W 270 ° 0 min 86 W/m² 11,5 °C 21,1 °C 20,9 km/h
05.09.2026 18:10 22,6 °C 50 % 1020,0 hPa 0,0 l/m² 16,1 km/h W 270 ° 0 min 90 W/m² 11,6 °C 20,2 °C 27,4 km/h
05.09.2026 18:05 22,7 °C 49 % 1020,0 hPa 0,0 l/m² 11,3 km/h W-SW 247 ° 0 min 111 W/m² 11,4 °C 21,3 °C 29,0 km/h
05.09.2026 18:00 22,7 °C 49 % 1020,0 hPa 0,0 l/m² 12,9 km/h W-NW 292 ° 0 min 151 W/m² 11,4 °C 20,9 °C 25,7 km/h
05.09.2026 17:55 22,8 °C 50 % 1020,0 hPa 0,0 l/m² 12,9 km/h W 270 ° 5 min 204 W/m² 11,8 °C 21,1 °C 30,6 km/h
05.09.2026 17:50 22,8 °C 50 % 1019,9 hPa 0,0 l/m² 16,1 km/h W 270 ° 5 min 243 W/m² 11,8 °C 20,4 °C 29,0 km/h
05.09.2026 17:45 22,9 °C 50 % 1019,9 hPa 0,0 l/m² 9,7 km/h W-SW 247 ° 5 min 271 W/m² 11,9 °C 21,9 °C 17,7 km/h
05.09.2026 17:40 22,9 °C 50 % 1019,9 hPa 0,0 l/m² 12,9 km/h W 270 ° 5 min 308 W/m² 11,9 °C 21,2 °C 22,5 km/h
05.09.2026 17:35 22,9 °C 50 % 1019,9 hPa 0,0 l/m² 12,9 km/h W-SW 247 ° 5 min 320 W/m² 11,9 °C 21,2 °C 22,5 km/h
05.09.2026 17:30 23,1 °C 52 % 1020,0 hPa 0,0 l/m² 11,3 km/h W 270 ° 5 min 336 W/m² 12,7 °C 21,8 °C 22,5 km/h
05.09.2026 17:25 23,1 °C 54 % 1019,9 hPa 0,0 l/m² 9,7 km/h W-SW 247 ° 5 min 355 W/m² 13,3 °C 22,1 °C 19,3 km/h
05.09.2026 17:20 22,8 °C 54 % 1019,9 hPa 0,0 l/m² 12,9 km/h W 270 ° 5 min 378 W/m² 13,0 °C 21,1 °C 24,1 km/h
05.09.2026 17:15 22,7 °C 56 % 1019,8 hPa 0,0 l/m² 11,3 km/h W-SW 247 ° 5 min 397 W/m² 13,5 °C 21,3 °C 22,5 km/h
05.09.2026 17:10 22,8 °C 57 % 1019,7 hPa 0,0 l/m² 8,0 km/h W-NW 292 ° 5 min 404 W/m² 13,8 °C 22,3 °C 19,3 km/h
05.09.2026 17:05 22,9 °C 56 % 1019,8 hPa 0,0 l/m² 9,7 km/h W 270 ° 5 min 415 W/m² 13,6 °C 21,9 °C 17,7 km/h
05.09.2026 17:00 23,0 °C 57 % 1019,7 hPa 0,0 l/m² 9,7 km/h W 270 ° 5 min 441 W/m² 14,0 °C 22,0 °C 24,1 km/h
05.09.2026 16:55 22,4 °C 60 % 1019,6 hPa 0,0 l/m² 8,0 km/h W-SW 247 ° 5 min 450 W/m² 14,2 °C 21,9 °C 16,1 km/h
05.09.2026 16:50 21,9 °C 62 % 1019,6 hPa 0,0 l/m² 6,4 km/h W 270 ° 5 min 464 W/m² 14,3 °C 21,9 °C 19,3 km/h
05.09.2026 16:45 21,4 °C 62 % 1019,6 hPa 0,0 l/m² 9,7 km/h W 270 ° 0 min 114 W/m² 13,8 °C 20,3 °C 17,7 km/h
05.09.2026 16:40 21,3 °C 63 % 1019,7 hPa 0,0 l/m² 8,0 km/h W-SW 247 ° 0 min 125 W/m² 14,0 °C 20,7 °C 17,7 km/h
05.09.2026 16:35 21,2 °C 64 % 1019,7 hPa 0,0 l/m² 8,0 km/h W-SW 247 ° 0 min 84 W/m² 14,1 °C 20,6 °C 16,1 km/h
05.09.2026 16:30 21,2 °C 64 % 1019,7 hPa 0,0 l/m² 4,8 km/h SW 225 ° 0 min 132 W/m² 14,1 °C 21,2 °C 12,9 km/h
05.09.2026 16:25 21,3 °C 65 % 1019,7 hPa 0,0 l/m² 4,8 km/h W 270 ° 0 min 135 W/m² 14,4 °C 21,3 °C 9,7 km/h
05.09.2026 16:20 21,2 °C 66 % 1019,7 hPa 0,0 l/m² 6,4 km/h W 270 ° 0 min 153 W/m² 14,6 °C 21,2 °C 17,7 km/h
05.09.2026 16:15 21,3 °C 66 % 1019,6 hPa 0,0 l/m² 6,4 km/h W 270 ° 0 min 127 W/m² 14,7 °C 21,3 °C 17,7 km/h
05.09.2026 16:10 21,3 °C 66 % 1019,6 hPa 0,0 l/m² 6,4 km/h W 270 ° 0 min 144 W/m² 14,7 °C 21,3 °C 12,9 km/h
05.09.2026 16:05 21,3 °C 65 % 1019,6 hPa 0,0 l/m² 6,4 km/h W-SW 247 ° 0 min 139 W/m² 14,4 °C 21,3 °C 14,5 km/h
05.09.2026 16:00 21,5 °C 66 % 1019,7 hPa 0,0 l/m² 6,4 km/h W 270 ° 0 min 137 W/m² 14,9 °C 21,5 °C 17,7 km/h
05.09.2026 15:55 21,3 °C 68 % 1019,7 hPa 0,0 l/m² 4,8 km/h W-SW 247 ° 0 min 172 W/m² 15,1 °C 21,3 °C 11,3 km/h
05.09.2026 15:50 21,2 °C 69 % 1019,7 hPa 0,0 l/m² 3,2 km/h W-SW 247 ° 0 min 195 W/m² 15,3 °C 21,2 °C 8,0 km/h
05.09.2026 15:45 21,1 °C 68 % 1019,7 hPa 0,0 l/m² 6,4 km/h W 270 ° 0 min 209 W/m² 15,0 °C 21,1 °C 12,9 km/h
05.09.2026 15:40 21,1 °C 68 % 1019,6 hPa 0,0 l/m² 4,8 km/h W-NW 292 ° 0 min 151 W/m² 15,0 °C 21,1 °C 14,5 km/h
05.09.2026 15:35 21,2 °C 69 % 1019,6 hPa 0,0 l/m² 4,8 km/h W 270 ° 0 min 199 W/m² 15,3 °C 21,2 °C 14,5 km/h
05.09.2026 15:30 21,3 °C 70 % 1019,6 hPa 0,0 l/m² 3,2 km/h W 270 ° 0 min 121 W/m² 15,6 °C 21,3 °C 11,3 km/h
05.09.2026 15:25 21,7 °C 68 % 1019,8 hPa 0,0 l/m² 6,4 km/h SW 225 ° 0 min 132 W/m² 15,5 °C 21,7 °C 14,5 km/h
05.09.2026 15:20 22,3 °C 66 % 1019,9 hPa 0,0 l/m² 6,4 km/h W-SW 247 ° 5 min 666 W/m² 15,6 °C 22,3 °C 14,5 km/h
05.09.2026 15:15 22,4 °C 70 % 1020,0 hPa 0,0 l/m² 4,8 km/h SW 225 ° 5 min 745 W/m² 16,7 °C 22,4 °C 14,5 km/h
05.09.2026 15:10 22,2 °C 67 % 1019,9 hPa 0,0 l/m² 6,4 km/h NW 315 ° 5 min 708 W/m² 15,8 °C 22,2 °C 16,1 km/h
05.09.2026 15:05 21,8 °C 69 % 1019,8 hPa 0,0 l/m² 4,8 km/h W-NW 292 ° 5 min 717 W/m² 15,9 °C 21,8 °C 19,3 km/h
05.09.2026 15:00 21,6 °C 69 % 1020,0 hPa 0,0 l/m² 8,0 km/h W-NW 292 ° 0 min 193 W/m² 15,7 °C 21,0 °C 14,5 km/h
05.09.2026 14:55 21,4 °C 71 % 1019,9 hPa 0,0 l/m² 6,4 km/h S 180 ° 0 min 239 W/m² 15,9 °C 21,4 °C 12,9 km/h
05.09.2026 14:50 21,3 °C 71 % 1020,0 hPa 0,0 l/m² 8,0 km/h S-SW 202 ° 0 min 246 W/m² 15,8 °C 20,7 °C 16,1 km/h
05.09.2026 14:45 21,7 °C 70 % 1019,9 hPa 0,0 l/m² 8,0 km/h S-SW 202 ° 0 min 241 W/m² 16,0 °C 21,1 °C 19,3 km/h
05.09.2026 14:40 21,6 °C 72 % 1020,0 hPa 0,0 l/m² 6,4 km/h S-SW 202 ° 0 min 285 W/m² 16,3 °C 21,6 °C 16,1 km/h
05.09.2026 14:35 21,4 °C 71 % 1019,9 hPa 0,0 l/m² 9,7 km/h S-SW 202 ° 0 min 225 W/m² 15,9 °C 20,3 °C 19,3 km/h
05.09.2026 14:30 21,6 °C 71 % 1019,9 hPa 0,0 l/m² 9,7 km/h S-SW 202 ° 5 min 728 W/m² 16,1 °C 20,5 °C 19,3 km/h
05.09.2026 14:25 22,1 °C 71 % 1019,8 hPa 0,0 l/m² 9,7 km/h S-SO 157 ° 5 min 872 W/m² 16,6 °C 21,0 °C 20,9 km/h
05.09.2026 14:20 21,2 °C 76 % 1019,7 hPa 0,0 l/m² 8,0 km/h S 180 ° 5 min 986 W/m² 16,8 °C 20,6 °C 17,7 km/h
05.09.2026 14:15 20,4 °C 75 % 1019,9 hPa 0,0 l/m² 11,3 km/h S-SW 202 ° 0 min 341 W/m² 15,8 °C 18,7 °C 22,5 km/h
05.09.2026 14:10 21,0 °C 74 % 1020,0 hPa 0,0 l/m² 9,7 km/h S 180 ° 0 min 350 W/m² 16,2 °C 19,8 °C 17,7 km/h
05.09.2026 14:05 21,3 °C 78 % 1020,0 hPa 0,0 l/m² 11,3 km/h S 180 ° 5 min 944 W/m² 17,3 °C 19,7 °C 30,6 km/h
05.09.2026 14:00 20,5 °C 75 % 1020,0 hPa 0,0 l/m² 9,7 km/h S 180 ° 5 min 895 W/m² 15,9 °C 19,3 °C 19,3 km/h
05.09.2026 13:55 20,1 °C 78 % 1020,2 hPa 0,0 l/m² 8,0 km/h S-SW 202 ° 0 min 288 W/m² 16,1 °C 19,5 °C 16,1 km/h
05.09.2026 13:50 19,9 °C 77 % 1020,2 hPa 0,0 l/m² 8,0 km/h S 180 ° 0 min 260 W/m² 15,7 °C 19,2 °C 19,3 km/h
05.09.2026 13:45 19,8 °C 77 % 1020,2 hPa 0,0 l/m² 14,5 km/h S-SW 202 ° 0 min 267 W/m² 15,6 °C 17,1 °C 22,5 km/h
05.09.2026 13:40 20,6 °C 75 % 1020,3 hPa 0,0 l/m² 14,5 km/h S-SW 202 ° 5 min 998 W/m² 16,0 °C 18,1 °C 25,7 km/h
05.09.2026 13:35 20,6 °C 76 % 1020,4 hPa 0,0 l/m² 11,3 km/h S 180 ° 5 min 817 W/m² 16,2 °C 18,9 °C 17,7 km/h
05.09.2026 13:30 20,5 °C 77 % 1020,3 hPa 0,0 l/m² 11,3 km/h S-SW 202 ° 5 min 991 W/m² 16,3 °C 18,8 °C 17,7 km/h
05.09.2026 13:25 21,1 °C 80 % 1020,4 hPa 0,0 l/m² 6,4 km/h S 180 ° 5 min 744 W/m² 17,5 °C 21,1 °C 17,7 km/h
05.09.2026 13:20 19,7 °C 82 % 1020,4 hPa 0,0 l/m² 3,2 km/h S 180 ° 5 min 1004 W/m² 16,5 °C 19,7 °C 14,5 km/h
05.09.2026 13:15 19,4 °C 82 % 1020,7 hPa 0,0 l/m² 3,2 km/h S-SO 157 ° 0 min 227 W/m² 16,2 °C 19,4 °C 11,3 km/h
05.09.2026 13:10 19,6 °C 82 % 1020,6 hPa 0,0 l/m² 8,0 km/h S 180 ° 0 min 403 W/m² 16,4 °C 18,9 °C 16,1 km/h
05.09.2026 13:05 19,3 °C 82 % 1020,6 hPa 0,0 l/m² 6,4 km/h S-SW 202 ° 5 min 900 W/m² 16,1 °C 19,3 °C 11,3 km/h
05.09.2026 13:00 19,7 °C 81 % 1020,6 hPa 0,0 l/m² 8,0 km/h S-SO 157 ° 5 min 819 W/m² 16,3 °C 19,0 °C 16,1 km/h
05.09.2026 12:55 19,2 °C 84 % 1020,6 hPa 0,0 l/m² 6,4 km/h SW 225 ° 5 min 812 W/m² 16,4 °C 19,2 °C 12,9 km/h
05.09.2026 12:50 18,9 °C 83 % 1020,6 hPa 0,0 l/m² 6,4 km/h SW 225 ° 5 min 844 W/m² 15,9 °C 18,9 °C 14,5 km/h
05.09.2026 12:45 19,1 °C 83 % 1020,7 hPa 0,0 l/m² 4,8 km/h S 180 ° 5 min 875 W/m² 16,1 °C 19,1 °C 17,7 km/h
05.09.2026 12:40 19,2 °C 82 % 1020,7 hPa 0,0 l/m² 4,8 km/h W-SW 247 ° 5 min 921 W/m² 16,0 °C 19,2 °C 9,7 km/h
05.09.2026 12:35 18,3 °C 84 % 1020,6 hPa 0,0 l/m² 6,4 km/h S-SW 202 ° 0 min 452 W/m² 15,5 °C 18,3 °C 11,3 km/h
05.09.2026 12:30 18,3 °C 85 % 1020,6 hPa 0,0 l/m² 6,4 km/h S 180 ° 0 min 350 W/m² 15,7 °C 18,3 °C 12,9 km/h
05.09.2026 12:25 18,3 °C 85 % 1020,6 hPa 0,0 l/m² 6,4 km/h SW 225 ° 5 min 561 W/m² 15,7 °C 18,3 °C 16,1 km/h
05.09.2026 12:20 17,9 °C 86 % 1020,7 hPa 0,0 l/m² 4,8 km/h SW 225 ° 0 min 343 W/m² 15,5 °C 17,9 °C 14,5 km/h
05.09.2026 12:15 17,6 °C 87 % 1020,6 hPa 0,0 l/m² 8,0 km/h S-SW 202 ° 0 min 432 W/m² 15,4 °C 16,8 °C 14,5 km/h
05.09.2026 12:10 17,6 °C 87 % 1020,7 hPa 0,0 l/m² 4,8 km/h SW 225 ° 0 min 369 W/m² 15,4 °C 17,6 °C 11,3 km/h
05.09.2026 12:05 17,4 °C 87 % 1020,7 hPa 0,0 l/m² 8,0 km/h S-SW 202 ° 0 min 272 W/m² 15,2 °C 16,6 °C 14,5 km/h
05.09.2026 12:00 17,7 °C 88 % 1020,7 hPa 0,0 l/m² 6,4 km/h S 180 ° 0 min 411 W/m² 15,7 °C 17,7 °C 11,3 km/h
05.09.2026 11:55 17,5 °C 88 % 1020,7 hPa 0,0 l/m² 6,4 km/h S 180 ° 0 min 385 W/m² 15,5 °C 17,5 °C 14,5 km/h
05.09.2026 11:50 17,2 °C 92 % 1020,7 hPa 0,0 l/m² 4,8 km/h S 180 ° 0 min 432 W/m² 15,9 °C 17,2 °C 12,9 km/h
05.09.2026 11:45 16,7 °C 90 % 1020,7 hPa 0,0 l/m² 3,2 km/h S 180 ° 0 min 237 W/m² 15,0 °C 16,7 °C 9,7 km/h
05.09.2026 11:40 16,6 °C 91 % 1020,7 hPa 0,0 l/m² 1,6 km/h S 180 ° 0 min 232 W/m² 15,1 °C 16,6 °C 6,4 km/h
05.09.2026 11:35 16,5 °C 91 % 1020,8 hPa 0,0 l/m² 0,0 km/h S 180 ° 0 min 243 W/m² 15,0 °C 16,5 °C 6,4 km/h
05.09.2026 11:30 16,3 °C 90 % 1020,7 hPa 0,0 l/m² 1,6 km/h S 180 ° 0 min 209 W/m² 14,7 °C 16,3 °C 9,7 km/h
05.09.2026 11:25 16,3 °C 92 % 1020,7 hPa 0,0 l/m² 1,6 km/h S-SW 202 ° 0 min 186 W/m² 15,0 °C 16,3 °C 8,0 km/h
05.09.2026 11:20 16,0 °C 92 % 1020,7 hPa 0,0 l/m² 3,2 km/h S-SW 202 ° 0 min 185 W/m² 14,7 °C 16,0 °C 9,7 km/h
05.09.2026 11:15 16,0 °C 94 % 1020,8 hPa 0,0 l/m² 0,0 km/h N 0 ° 0 min 155 W/m² 15,0 °C 16,0 °C 0,0 km/h
05.09.2026 11:10 15,9 °C 94 % 1020,8 hPa 0,0 l/m² 1,6 km/h SO 135 ° 0 min 100 W/m² 14,9 °C 15,9 °C 6,4 km/h
05.09.2026 11:05 16,1 °C 93 % 1020,7 hPa 0,0 l/m² 4,8 km/h SO 135 ° 0 min 137 W/m² 15,0 °C 16,1 °C 11,3 km/h
05.09.2026 11:00 16,5 °C 92 % 1020,7 hPa 0,0 l/m² 4,8 km/h S-SO 157 ° 0 min 248 W/m² 15,2 °C 16,5 °C 11,3 km/h
05.09.2026 10:55 16,9 °C 92 % 1020,6 hPa 0,0 l/m² 3,2 km/h SO 135 ° 5 min 639 W/m² 15,6 °C 16,9 °C 9,7 km/h
05.09.2026 10:50 16,2 °C 95 % 1020,5 hPa 0,0 l/m² 0,0 km/h SO 135 ° 5 min 436 W/m² 15,4 °C 16,2 °C 1,6 km/h
05.09.2026 10:45 15,9 °C 96 % 1020,4 hPa 0,0 l/m² 0,0 km/h O-SO 112 ° 0 min 309 W/m² 15,3 °C 15,9 °C 4,8 km/h
05.09.2026 10:40 15,8 °C 97 % 1020,5 hPa 0,0 l/m² 0,0 km/h O-SO 112 ° 0 min 279 W/m² 15,3 °C 15,8 °C 6,4 km/h
05.09.2026 10:35 15,6 °C 97 % 1020,5 hPa 0,0 l/m² 1,6 km/h SO 135 ° 5 min 397 W/m² 15,1 °C 15,6 °C 6,4 km/h
05.09.2026 10:30 15,6 °C 97 % 1020,5 hPa 0,0 l/m² 3,2 km/h O-SO 112 ° 0 min 237 W/m² 15,1 °C 15,6 °C 9,7 km/h
05.09.2026 10:25 15,6 °C 97 % 1020,4 hPa 0,0 l/m² 0,0 km/h SO 135 ° 0 min 301 W/m² 15,1 °C 15,6 °C 3,2 km/h
05.09.2026 10:20 15,2 °C 97 % 1020,4 hPa 0,0 l/m² 0,0 km/h SO 135 ° 0 min 279 W/m² 14,7 °C 15,2 °C 3,2 km/h
05.09.2026 10:15 14,7 °C 97 % 1020,4 hPa 0,0 l/m² 0,0 km/h SO 135 ° 0 min 171 W/m² 14,2 °C 14,7 °C 1,6 km/h
05.09.2026 10:10 14,8 °C 97 % 1020,4 hPa 0,0 l/m² 0,0 km/h N 0 ° 0 min 130 W/m² 14,3 °C 14,8 °C 0,0 km/h
05.09.2026 10:05 14,6 °C 97 % 1020,4 hPa 0,0 l/m² 0,0 km/h SO 135 ° 0 min 176 W/m² 14,1 °C 14,6 °C 4,8 km/h
05.09.2026 10:00 14,6 °C 97 % 1020,4 hPa 0,0 l/m² 0,0 km/h SO 135 ° 0 min 151 W/m² 14,1 °C 14,6 °C 1,6 km/h
05.09.2026 09:55 14,3 °C 97 % 1020,4 hPa 0,0 l/m² 1,6 km/h SO 135 ° 0 min 137 W/m² 13,8 °C 14,3 °C 3,2 km/h
05.09.2026 09:50 14,3 °C 97 % 1020,1 hPa 0,0 l/m² 1,6 km/h SO 135 ° 0 min 216 W/m² 13,8 °C 14,3 °C 4,8 km/h
05.09.2026 09:45 14,4 °C 96 % 1020,2 hPa 0,0 l/m² 1,6 km/h SO 135 ° 0 min 211 W/m² 13,8 °C 14,4 °C 4,8 km/h
05.09.2026 09:40 14,6 °C 97 % 1020,0 hPa 0,0 l/m² 3,2 km/h S-SO 157 ° 0 min 214 W/m² 14,1 °C 14,6 °C 8,0 km/h
05.09.2026 09:35 14,4 °C 97 % 1020,1 hPa 0,0 l/m² 1,6 km/h S-SO 157 ° 0 min 227 W/m² 13,9 °C 14,4 °C 4,8 km/h
05.09.2026 09:30 14,2 °C 97 % 1019,9 hPa 0,0 l/m² 1,6 km/h S-SW 202 ° 0 min 197 W/m² 13,7 °C 14,2 °C 4,8 km/h
05.09.2026 09:25 13,9 °C 97 % 1019,9 hPa 0,0 l/m² 3,2 km/h S-SW 202 ° 0 min 225 W/m² 13,4 °C 13,9 °C 6,4 km/h
05.09.2026 09:20 13,9 °C 97 % 1019,9 hPa 0,0 l/m² 1,6 km/h S-SW 202 ° 0 min 272 W/m² 13,4 °C 13,9 °C 8,0 km/h
05.09.2026 09:15 13,7 °C 97 % 1020,0 hPa 0,0 l/m² 1,6 km/h S-SW 202 ° 0 min 98 W/m² 13,2 °C 13,7 °C 4,8 km/h
05.09.2026 09:10 13,7 °C 97 % 1020,1 hPa 0,0 l/m² 0,0 km/h S-SW 202 ° 0 min 118 W/m² 13,2 °C 13,7 °C 1,6 km/h
05.09.2026 09:05 13,6 °C 97 % 1020,0 hPa 0,0 l/m² 0,0 km/h S-SW 202 ° 0 min 139 W/m² 13,1 °C 13,6 °C 3,2 km/h
05.09.2026 09:00 13,5 °C 97 % 1019,9 hPa 0,0 l/m² 0,0 km/h S-SW 202 ° 0 min 125 W/m² 13,0 °C 13,5 °C 1,6 km/h
05.09.2026 08:55 13,4 °C 97 % 1019,8 hPa 0,0 l/m² 0,0 km/h S-SW 202 ° 0 min 77 W/m² 12,9 °C 13,4 °C 1,6 km/h
05.09.2026 08:50 13,3 °C 96 % 1019,7 hPa 0,0 l/m² 0,0 km/h S-SW 202 ° 0 min 56 W/m² 12,7 °C 13,3 °C 1,6 km/h
05.09.2026 08:45 13,2 °C 96 % 1019,3 hPa 0,0 l/m² 0,0 km/h S-SW 202 ° 0 min 63 W/m² 12,6 °C 13,2 °C 1,6 km/h
05.09.2026 08:40 13,2 °C 96 % 1019,5 hPa 0,0 l/m² 0,0 km/h S-SW 202 ° 0 min 63 W/m² 12,6 °C 13,2 °C 1,6 km/h
05.09.2026 08:35 13,1 °C 96 % 1019,3 hPa 0,0 l/m² 0,0 km/h S-SW 202 ° 0 min 47 W/m² 12,5 °C 13,1 °C 3,2 km/h
05.09.2026 08:30 13,0 °C 96 % 1019,4 hPa 0,0 l/m² 0,0 km/h N 0 ° 0 min 42 W/m² 12,4 °C 13,0 °C 0,0 km/h
05.09.2026 08:25 12,9 °C 96 % 1019,3 hPa 0,0 l/m² 0,0 km/h N 0 ° 0 min 46 W/m² 12,3 °C 12,9 °C 0,0 km/h
05.09.2026 08:20 12,9 °C 96 % 1019,4 hPa 0,0 l/m² 0,0 km/h S-SW 202 ° 0 min 42 W/m² 12,3 °C 12,9 °C 3,2 km/h
05.09.2026 08:15 12,8 °C 96 % 1019,5 hPa 0,0 l/m² 1,6 km/h S-SW 202 ° 0 min 33 W/m² 12,2 °C 12,8 °C 4,8 km/h
05.09.2026 08:10 12,8 °C 95 % 1019,4 hPa 0,0 l/m² 0,0 km/h S-SW 202 ° 0 min 33 W/m² 12,0 °C 12,8 °C 3,2 km/h
05.09.2026 08:05 12,8 °C 95 % 1019,2 hPa 0,0 l/m² 0,0 km/h S-SW 202 ° 0 min 35 W/m² 12,0 °C 12,8 °C 3,2 km/h
05.09.2026 08:00 12,7 °C 95 % 1019,0 hPa 0,0 l/m² 1,6 km/h S-SW 202 ° 0 min 33 W/m² 11,9 °C 12,7 °C 3,2 km/h
05.09.2026 07:55 12,7 °C 95 % 1019,2 hPa 0,0 l/m² 1,6 km/h S-SW 202 ° 0 min 21 W/m² 11,9 °C 12,7 °C 4,8 km/h
05.09.2026 07:50 12,7 °C 95 % 1019,0 hPa 0,0 l/m² 1,6 km/h S-SW 202 ° 0 min 12 W/m² 11,9 °C 12,7 °C 3,2 km/h
05.09.2026 07:45 12,7 °C 94 % 1018,7 hPa 0,0 l/m² 1,6 km/h S-SW 202 ° 0 min 11 W/m² 11,8 °C 12,7 °C 3,2 km/h
05.09.2026 07:40 12,7 °C 94 % 1018,7 hPa 0,0 l/m² 1,6 km/h S-SW 202 ° 0 min 11 W/m² 11,8 °C 12,7 °C 3,2 km/h
05.09.2026 07:35 12,7 °C 94 % 1018,6 hPa 0,0 l/m² 0,0 km/h S-SW 202 ° 0 min 11 W/m² 11,8 °C 12,7 °C 1,6 km/h
05.09.2026 07:30 12,8 °C 94 % 1018,6 hPa 0,0 l/m² 1,6 km/h S-SW 202 ° 0 min 12 W/m² 11,9 °C 12,8 °C 4,8 km/h
05.09.2026 07:25 12,8 °C 94 % 1018,5 hPa 0,0 l/m² 3,2 km/h S-SW 202 ° 0 min 11 W/m² 11,9 °C 12,8 °C 8,0 km/h
05.09.2026 07:20 12,8 °C 94 % 1018,4 hPa 0,0 l/m² 1,6 km/h W 270 ° 0 min 11 W/m² 11,9 °C 12,8 °C 4,8 km/h
05.09.2026 07:15 12,8 °C 93 % 1018,4 hPa 0,2 l/m² 3,2 km/h W-NW 292 ° 0 min 5 W/m² 11,7 °C 12,8 °C 4,8 km/h
05.09.2026 07:10 12,8 °C 93 % 1018,4 hPa 0,2 l/m² 3,2 km/h W-NW 292 ° 0 min 5 W/m² 11,7 °C 12,8 °C 4,8 km/h
05.09.2026 07:05 12,8 °C 93 % 1018,3 hPa 0,2 l/m² 0,0 km/h W-NW 292 ° 0 min 5 W/m² 11,7 °C 12,8 °C 3,2 km/h
05.09.2026 07:00 12,8 °C 92 % 1018,2 hPa 0,2 l/m² 1,6 km/h W-NW 292 ° 0 min 0 W/m² 11,5 °C 12,8 °C 4,8 km/h
05.09.2026 06:55 12,7 °C 92 % 1018,1 hPa 0,0 l/m² 0,0 km/h W-NW 292 ° 0 min 0 W/m² 11,4 °C 12,7 °C 3,2 km/h
05.09.2026 06:50 12,8 °C 92 % 1018,1 hPa 0,2 l/m² 0,0 km/h W-NW 292 ° 0 min 0 W/m² 11,5 °C 12,8 °C 1,6 km/h
05.09.2026 06:45 12,9 °C 91 % 1018,3 hPa 0,2 l/m² 0,0 km/h N 0 ° 0 min 0 W/m² 11,5 °C 12,9 °C 0,0 km/h
05.09.2026 06:40 12,9 °C 91 % 1018,5 hPa 0,2 l/m² 0,0 km/h W-NW 292 ° 0 min 0 W/m² 11,5 °C 12,9 °C 3,2 km/h
05.09.2026 06:35 13,1 °C 91 % 1018,8 hPa 0,2 l/m² 1,6 km/h W-NW 292 ° 0 min 0 W/m² 11,7 °C 13,1 °C 3,2 km/h
05.09.2026 06:30 13,1 °C 90 % 1018,2 hPa 0,2 l/m² 0,0 km/h W-NW 292 ° 0 min 0 W/m² 11,5 °C 13,1 °C 3,2 km/h
05.09.2026 06:25 13,2 °C 90 % 1018,3 hPa 0,4 l/m² 1,6 km/h W-NW 292 ° 0 min 0 W/m² 11,6 °C 13,2 °C 3,2 km/h
05.09.2026 06:20 13,3 °C 89 % 1018,5 hPa 0,2 l/m² 1,6 km/h W-NW 292 ° 0 min 0 W/m² 11,5 °C 13,3 °C 3,2 km/h
05.09.2026 06:15 13,4 °C 88 % 1018,5 hPa 0,4 l/m² 4,8 km/h W-NW 292 ° 0 min 0 W/m² 11,5 °C 13,4 °C 6,4 km/h
05.09.2026 06:10 13,6 °C 88 % 1018,4 hPa 0,0 l/m² 1,6 km/h W-NW 292 ° 0 min 0 W/m² 11,6 °C 13,6 °C 6,4 km/h
05.09.2026 06:05 13,8 °C 87 % 1018,4 hPa 0,4 l/m² 0,0 km/h W-NW 292 ° 0 min 0 W/m² 11,7 °C 13,8 °C 3,2 km/h
05.09.2026 06:00 13,8 °C 87 % 1018,4 hPa 0,4 l/m² 6,4 km/h W-NW 292 ° 0 min 0 W/m² 11,7 °C 13,8 °C 16,1 km/h
_ Min-Zeit 04:25 18:00 06:50 - 06:05 - - - - 04:25 04:25 06:45
Minimum _ 9,9 °C 49 % 1018,1 hPa - 0,0 km/h - - - - 8,2 °C 9,9 °C 0,0 km/h
_ Max-Zeit 17:05 08:55 04:35 06:00 17:50 - - 10:35 13:20 13:25 15:15 14:05
Maximum _ 23,1 °C 97 % 1025,5 hPa 0,4 l/m² 16,1 km/h
W
- - 5 min 1004 W/m² 17,5 °C 22,4 °C 30,6 km/h
SW
Durchschnitt _ 16,4 °C 78 % 1021,2 hPa #3,6 l/m² 4,1 km/h W-NW - #0 min. 0 W/m² 12,2 °C 16,2 °C 9,6 km/h